sensor_id;sensor_type;location;lat;lon;timestamp;temperature;humidity
26164;DHT22;13914;48.178;11.716;2024-02-21T00:00:49;5.40;12.70
26164;DHT22;13914;48.178;11.716;2024-02-21T00:03:15;5.40;12.70
26164;DHT22;13914;48.178;11.716;2024-02-21T00:05:40;5.30;12.70
26164;DHT22;13914;48.178;11.716;2024-02-21T00:08:06;5.40;12.70
26164;DHT22;13914;48.178;11.716;2024-02-21T00:10:32;5.40;12.70
26164;DHT22;13914;48.178;11.716;2024-02-21T00:12:58;5.30;12.70
26164;DHT22;13914;48.178;11.716;2024-02-21T00:15:25;5.40;12.70
26164;DHT22;13914;48.178;11.716;2024-02-21T00:17:51;5.30;12.80
26164;DHT22;13914;48.178;11.716;2024-02-21T00:20:16;5.30;12.80
26164;DHT22;13914;48.178;11.716;2024-02-21T00:22:43;5.30;12.70
26164;DHT22;13914;48.178;11.716;2024-02-21T00:25:09;5.30;12.80
26164;DHT22;13914;48.178;11.716;2024-02-21T00:27:35;5.30;12.80
26164;DHT22;13914;48.178;11.716;2024-02-21T00:30:01;5.30;12.80
26164;DHT22;13914;48.178;11.716;2024-02-21T00:32:27;5.30;12.80
26164;DHT22;13914;48.178;11.716;2024-02-21T00:34:53;5.30;12.90
26164;DHT22;13914;48.178;11.716;2024-02-21T00:37:19;5.30;12.90
26164;DHT22;13914;48.178;11.716;2024-02-21T00:39:44;5.30;12.90
26164;DHT22;13914;48.178;11.716;2024-02-21T00:42:10;5.30;12.90
26164;DHT22;13914;48.178;11.716;2024-02-21T00:44:36;5.30;12.90
26164;DHT22;13914;48.178;11.716;2024-02-21T00:47:01;5.30;13.00
26164;DHT22;13914;48.178;11.716;2024-02-21T00:49:27;5.30;12.90
26164;DHT22;13914;48.178;11.716;2024-02-21T00:51:53;5.30;12.90
26164;DHT22;13914;48.178;11.716;2024-02-21T00:54:18;5.30;12.90
26164;DHT22;13914;48.178;11.716;2024-02-21T00:56:44;5.20;12.80
26164;DHT22;13914;48.178;11.716;2024-02-21T00:59:10;5.20;12.90
26164;DHT22;13914;48.178;11.716;2024-02-21T01:01:35;5.30;13.00
26164;DHT22;13914;48.178;11.716;2024-02-21T01:04:01;5.20;12.90
26164;DHT22;13914;48.178;11.716;2024-02-21T01:06:27;5.20;13.00
26164;DHT22;13914;48.178;11.716;2024-02-21T01:08:52;5.30;13.60
26164;DHT22;13914;48.178;11.716;2024-02-21T01:11:18;5.20;13.00
26164;DHT22;13914;48.178;11.716;2024-02-21T01:13:44;5.20;13.00
26164;DHT22;13914;48.178;11.716;2024-02-21T01:16:09;5.20;13.00
26164;DHT22;13914;48.178;11.716;2024-02-21T01:18:38;5.20;13.00
26164;DHT22;13914;48.178;11.716;2024-02-21T01:21:07;5.20;13.00
26164;DHT22;13914;48.178;11.716;2024-02-21T01:23:36;5.20;13.00
26164;DHT22;13914;48.178;11.716;2024-02-21T01:26:02;5.20;13.10
26164;DHT22;13914;48.178;11.716;2024-02-21T01:28:29;5.20;13.00
26164;DHT22;13914;48.178;11.716;2024-02-21T01:30:56;5.20;13.10
26164;DHT22;13914;48.178;11.716;2024-02-21T01:33:22;5.20;13.10
26164;DHT22;13914;48.178;11.716;2024-02-21T01:35:47;5.20;13.10
26164;DHT22;13914;48.178;11.716;2024-02-21T01:38:14;5.20;13.10
26164;DHT22;13914;48.178;11.716;2024-02-21T01:40:40;5.20;13.10
26164;DHT22;13914;48.178;11.716;2024-02-21T01:43:14;5.20;13.10
26164;DHT22;13914;48.178;11.716;2024-02-21T01:45:41;5.20;13.10
26164;DHT22;13914;48.178;11.716;2024-02-21T01:48:06;5.20;13.10
26164;DHT22;13914;48.178;11.716;2024-02-21T01:50:32;5.20;13.00
26164;DHT22;13914;48.178;11.716;2024-02-21T01:52:58;5.20;13.10
26164;DHT22;13914;48.178;11.716;2024-02-21T01:55:24;5.20;13.10
26164;DHT22;13914;48.178;11.716;2024-02-21T01:57:50;5.20;13.10
26164;DHT22;13914;48.178;11.716;2024-02-21T02:00:16;5.20;13.10
26164;DHT22;13914;48.178;11.716;2024-02-21T02:02:42;5.20;13.10
26164;DHT22;13914;48.178;11.716;2024-02-21T02:05:07;5.20;13.10
26164;DHT22;13914;48.178;11.716;2024-02-21T02:07:33;5.20;13.10
26164;DHT22;13914;48.178;11.716;2024-02-21T02:09:59;5.20;13.10
26164;DHT22;13914;48.178;11.716;2024-02-21T02:12:25;5.20;13.10
26164;DHT22;13914;48.178;11.716;2024-02-21T02:14:57;5.20;13.10
26164;DHT22;13914;48.178;11.716;2024-02-21T02:17:26;5.20;13.20
26164;DHT22;13914;48.178;11.716;2024-02-21T02:19:52;5.20;13.20
26164;DHT22;13914;48.178;11.716;2024-02-21T02:22:19;5.20;13.20
26164;DHT22;13914;48.178;11.716;2024-02-21T02:24:48;5.20;13.20
26164;DHT22;13914;48.178;11.716;2024-02-21T02:27:14;5.20;13.20
26164;DHT22;13914;48.178;11.716;2024-02-21T02:29:40;5.20;13.20
26164;DHT22;13914;48.178;11.716;2024-02-21T02:32:06;5.20;13.20
26164;DHT22;13914;48.178;11.716;2024-02-21T02:34:31;5.20;13.10
26164;DHT22;13914;48.178;11.716;2024-02-21T02:36:57;5.20;13.20
26164;DHT22;13914;48.178;11.716;2024-02-21T02:39:23;5.20;13.30
26164;DHT22;13914;48.178;11.716;2024-02-21T02:41:48;5.20;13.20
26164;DHT22;13914;48.178;11.716;2024-02-21T02:44:14;5.20;13.20
26164;DHT22;13914;48.178;11.716;2024-02-21T02:46:40;5.20;13.20
26164;DHT22;13914;48.178;11.716;2024-02-21T02:49:06;5.20;13.20
26164;DHT22;13914;48.178;11.716;2024-02-21T02:51:32;5.20;13.30
26164;DHT22;13914;48.178;11.716;2024-02-21T02:53:57;5.20;13.20
26164;DHT22;13914;48.178;11.716;2024-02-21T02:56:23;5.20;13.20
26164;DHT22;13914;48.178;11.716;2024-02-21T02:58:49;5.20;13.20
26164;DHT22;13914;48.178;11.716;2024-02-21T03:01:14;5.20;13.30
26164;DHT22;13914;48.178;11.716;2024-02-21T03:03:40;5.20;13.20
26164;DHT22;13914;48.178;11.716;2024-02-21T03:06:06;5.20;13.20
26164;DHT22;13914;48.178;11.716;2024-02-21T03:08:31;5.30;13.20
26164;DHT22;13914;48.178;11.716;2024-02-21T03:10:58;5.20;13.20
26164;DHT22;13914;48.178;11.716;2024-02-21T03:13:25;5.20;13.10
26164;DHT22;13914;48.178;11.716;2024-02-21T03:15:51;5.30;13.20
26164;DHT22;13914;48.178;11.716;2024-02-21T03:18:16;5.20;13.20
26164;DHT22;13914;48.178;11.716;2024-02-21T03:20:42;5.30;13.20
26164;DHT22;13914;48.178;11.716;2024-02-21T03:23:08;5.20;13.20
26164;DHT22;13914;48.178;11.716;2024-02-21T03:25:33;5.20;13.20
26164;DHT22;13914;48.178;11.716;2024-02-21T03:27:59;5.30;13.30
26164;DHT22;13914;48.178;11.716;2024-02-21T03:30:25;5.30;13.30
26164;DHT22;13914;48.178;11.716;2024-02-21T03:32:50;5.20;13.20
26164;DHT22;13914;48.178;11.716;2024-02-21T03:35:16;5.20;13.20
26164;DHT22;13914;48.178;11.716;2024-02-21T03:37:42;5.20;13.20
26164;DHT22;13914;48.178;11.716;2024-02-21T03:40:10;5.30;13.20
26164;DHT22;13914;48.178;11.716;2024-02-21T03:42:37;5.30;13.20
26164;DHT22;13914;48.178;11.716;2024-02-21T03:45:03;5.30;13.30
26164;DHT22;13914;48.178;11.716;2024-02-21T03:47:29;5.30;13.30
26164;DHT22;13914;48.178;11.716;2024-02-21T03:49:55;5.30;13.20
26164;DHT22;13914;48.178;11.716;2024-02-21T03:52:20;5.30;13.30
26164;DHT22;13914;48.178;11.716;2024-02-21T03:54:46;5.30;13.20
26164;DHT22;13914;48.178;11.716;2024-02-21T03:57:12;5.30;13.30
26164;DHT22;13914;48.178;11.716;2024-02-21T03:59:37;5.30;13.20
26164;DHT22;13914;48.178;11.716;2024-02-21T04:02:05;5.30;13.30
26164;DHT22;13914;48.178;11.716;2024-02-21T04:04:36;5.30;13.20
26164;DHT22;13914;48.178;11.716;2024-02-21T04:07:02;5.30;13.30
26164;DHT22;13914;48.178;11.716;2024-02-21T04:09:32;5.30;13.30
26164;DHT22;13914;48.178;11.716;2024-02-21T04:11:59;5.30;13.20
26164;DHT22;13914;48.178;11.716;2024-02-21T04:14:25;5.30;13.20
26164;DHT22;13914;48.178;11.716;2024-02-21T04:16:51;5.30;13.20
26164;DHT22;13914;48.178;11.716;2024-02-21T04:19:17;5.30;13.20
26164;DHT22;13914;48.178;11.716;2024-02-21T04:21:42;5.30;13.20
26164;DHT22;13914;48.178;11.716;2024-02-21T04:24:08;5.30;13.20
26164;DHT22;13914;48.178;11.716;2024-02-21T04:26:34;5.30;13.20
26164;DHT22;13914;48.178;11.716;2024-02-21T04:28:59;5.30;13.20
26164;DHT22;13914;48.178;11.716;2024-02-21T04:31:25;5.30;13.20
26164;DHT22;13914;48.178;11.716;2024-02-21T04:33:51;5.30;13.20
26164;DHT22;13914;48.178;11.716;2024-02-21T04:36:17;5.30;13.20
26164;DHT22;13914;48.178;11.716;2024-02-21T04:38:42;5.30;13.20
26164;DHT22;13914;48.178;11.716;2024-02-21T04:41:08;5.30;13.20
26164;DHT22;13914;48.178;11.716;2024-02-21T04:43:34;5.30;13.20
26164;DHT22;13914;48.178;11.716;2024-02-21T04:45:59;5.30;13.20
26164;DHT22;13914;48.178;11.716;2024-02-21T04:48:25;5.30;13.20
26164;DHT22;13914;48.178;11.716;2024-02-21T04:50:51;5.30;13.20
26164;DHT22;13914;48.178;11.716;2024-02-21T04:53:17;5.30;13.10
26164;DHT22;13914;48.178;11.716;2024-02-21T04:55:42;5.30;13.10
26164;DHT22;13914;48.178;11.716;2024-02-21T04:58:08;5.30;13.10
26164;DHT22;13914;48.178;11.716;2024-02-21T05:00:34;5.30;13.10
26164;DHT22;13914;48.178;11.716;2024-02-21T05:02:59;5.30;13.20
26164;DHT22;13914;48.178;11.716;2024-02-21T05:05:25;5.30;13.10
26164;DHT22;13914;48.178;11.716;2024-02-21T05:07:51;5.30;13.10
26164;DHT22;13914;48.178;11.716;2024-02-21T05:10:16;5.30;13.10
26164;DHT22;13914;48.178;11.716;2024-02-21T05:12:43;5.30;13.10
26164;DHT22;13914;48.178;11.716;2024-02-21T05:15:08;5.30;13.10
26164;DHT22;13914;48.178;11.716;2024-02-21T05:17:34;5.30;13.00
26164;DHT22;13914;48.178;11.716;2024-02-21T05:19:59;5.30;13.20
26164;DHT22;13914;48.178;11.716;2024-02-21T05:22:25;5.30;13.10
26164;DHT22;13914;48.178;11.716;2024-02-21T05:24:51;5.30;13.10
26164;DHT22;13914;48.178;11.716;2024-02-21T05:27:16;5.30;13.10
26164;DHT22;13914;48.178;11.716;2024-02-21T05:29:42;5.30;13.00
26164;DHT22;13914;48.178;11.716;2024-02-21T05:32:08;5.30;13.00
26164;DHT22;13914;48.178;11.716;2024-02-21T05:34:33;5.20;13.60
26164;DHT22;13914;48.178;11.716;2024-02-21T05:36:59;5.20;13.00
26164;DHT22;13914;48.178;11.716;2024-02-21T05:39:26;5.20;13.00
26164;DHT22;13914;48.178;11.716;2024-02-21T05:41:51;5.20;13.00
26164;DHT22;13914;48.178;11.716;2024-02-21T05:44:18;5.20;13.00
26164;DHT22;13914;48.178;11.716;2024-02-21T05:46:43;5.20;13.00
26164;DHT22;13914;48.178;11.716;2024-02-21T05:49:09;5.20;13.00
26164;DHT22;13914;48.178;11.716;2024-02-21T05:51:35;5.20;13.00
26164;DHT22;13914;48.178;11.716;2024-02-21T05:54:01;5.10;13.00
26164;DHT22;13914;48.178;11.716;2024-02-21T05:56:27;5.10;13.00
26164;DHT22;13914;48.178;11.716;2024-02-21T05:58:53;5.10;13.00
26164;DHT22;13914;48.178;11.716;2024-02-21T06:01:19;5.10;13.20
26164;DHT22;13914;48.178;11.716;2024-02-21T06:03:46;5.10;13.00
26164;DHT22;13914;48.178;11.716;2024-02-21T06:06:12;5.10;13.00
26164;DHT22;13914;48.178;11.716;2024-02-21T06:08:40;5.10;13.00
26164;DHT22;13914;48.178;11.716;2024-02-21T06:11:06;5.10;13.00
26164;DHT22;13914;48.178;11.716;2024-02-21T06:13:31;5.10;13.00
26164;DHT22;13914;48.178;11.716;2024-02-21T06:15:57;5.10;13.00
26164;DHT22;13914;48.178;11.716;2024-02-21T06:18:22;5.10;13.00
26164;DHT22;13914;48.178;11.716;2024-02-21T06:20:48;5.10;13.00
26164;DHT22;13914;48.178;11.716;2024-02-21T06:23:16;5.00;13.10
26164;DHT22;13914;48.178;11.716;2024-02-21T06:25:42;5.10;13.10
26164;DHT22;13914;48.178;11.716;2024-02-21T06:28:08;5.00;13.10
26164;DHT22;13914;48.178;11.716;2024-02-21T06:30:34;5.00;13.10
26164;DHT22;13914;48.178;11.716;2024-02-21T06:33:00;5.00;13.10
26164;DHT22;13914;48.178;11.716;2024-02-21T06:35:28;5.00;13.10
26164;DHT22;13914;48.178;11.716;2024-02-21T06:37:53;5.00;13.10
26164;DHT22;13914;48.178;11.716;2024-02-21T06:40:22;5.00;13.10
26164;DHT22;13914;48.178;11.716;2024-02-21T06:42:48;5.00;13.10
26164;DHT22;13914;48.178;11.716;2024-02-21T06:45:14;5.00;13.10
26164;DHT22;13914;48.178;11.716;2024-02-21T06:47:40;5.00;13.10
26164;DHT22;13914;48.178;11.716;2024-02-21T06:50:06;5.00;13.10
26164;DHT22;13914;48.178;11.716;2024-02-21T06:52:32;5.00;13.70
26164;DHT22;13914;48.178;11.716;2024-02-21T06:54:57;5.00;13.20
26164;DHT22;13914;48.178;11.716;2024-02-21T06:57:23;5.00;13.20
26164;DHT22;13914;48.178;11.716;2024-02-21T06:59:48;5.00;13.30
26164;DHT22;13914;48.178;11.716;2024-02-21T07:02:14;5.00;13.30
26164;DHT22;13914;48.178;11.716;2024-02-21T07:04:40;5.00;13.40
26164;DHT22;13914;48.178;11.716;2024-02-21T07:07:06;5.00;13.30
26164;DHT22;13914;48.178;11.716;2024-02-21T07:09:31;5.00;13.40
26164;DHT22;13914;48.178;11.716;2024-02-21T07:11:57;5.00;13.40
26164;DHT22;13914;48.178;11.716;2024-02-21T07:14:23;5.00;13.40
26164;DHT22;13914;48.178;11.716;2024-02-21T07:16:49;5.00;13.40
26164;DHT22;13914;48.178;11.716;2024-02-21T07:19:15;5.00;13.40
26164;DHT22;13914;48.178;11.716;2024-02-21T07:21:40;5.00;13.50
26164;DHT22;13914;48.178;11.716;2024-02-21T07:24:09;5.00;13.50
26164;DHT22;13914;48.178;11.716;2024-02-21T07:26:34;5.00;13.60
26164;DHT22;13914;48.178;11.716;2024-02-21T07:29:00;5.00;13.50
26164;DHT22;13914;48.178;11.716;2024-02-21T07:31:26;5.00;13.50
26164;DHT22;13914;48.178;11.716;2024-02-21T07:33:51;5.00;13.50
26164;DHT22;13914;48.178;11.716;2024-02-21T07:36:25;5.10;13.50
26164;DHT22;13914;48.178;11.716;2024-02-21T07:38:53;5.10;13.50
26164;DHT22;13914;48.178;11.716;2024-02-21T07:41:19;5.10;13.50
26164;DHT22;13914;48.178;11.716;2024-02-21T07:43:44;5.10;13.50
26164;DHT22;13914;48.178;11.716;2024-02-21T07:46:10;5.10;13.50
26164;DHT22;13914;48.178;11.716;2024-02-21T07:48:36;5.10;13.50
26164;DHT22;13914;48.178;11.716;2024-02-21T07:51:01;5.10;13.50
26164;DHT22;13914;48.178;11.716;2024-02-21T07:53:27;5.20;13.60
26164;DHT22;13914;48.178;11.716;2024-02-21T07:55:53;5.20;13.60
26164;DHT22;13914;48.178;11.716;2024-02-21T07:58:18;5.20;13.60
26164;DHT22;13914;48.178;11.716;2024-02-21T08:00:44;5.20;13.60
26164;DHT22;13914;48.178;11.716;2024-02-21T08:03:09;5.20;13.60
26164;DHT22;13914;48.178;11.716;2024-02-21T08:05:35;5.20;13.60
26164;DHT22;13914;48.178;11.716;2024-02-21T08:08:02;5.30;13.60
26164;DHT22;13914;48.178;11.716;2024-02-21T08:10:28;5.30;13.60
26164;DHT22;13914;48.178;11.716;2024-02-21T08:12:54;5.30;13.60
26164;DHT22;13914;48.178;11.716;2024-02-21T08:15:20;5.30;13.60
26164;DHT22;13914;48.178;11.716;2024-02-21T08:17:49;5.40;13.80
26164;DHT22;13914;48.178;11.716;2024-02-21T08:20:15;5.40;13.80
26164;DHT22;13914;48.178;11.716;2024-02-21T08:22:41;5.40;13.80
26164;DHT22;13914;48.178;11.716;2024-02-21T08:25:06;5.40;14.00
26164;DHT22;13914;48.178;11.716;2024-02-21T08:27:32;5.50;14.20
26164;DHT22;13914;48.178;11.716;2024-02-21T08:29:58;5.60;14.60
26164;DHT22;13914;48.178;11.716;2024-02-21T08:32:23;5.60;14.70
26164;DHT22;13914;48.178;11.716;2024-02-21T08:34:49;5.70;14.90
26164;DHT22;13914;48.178;11.716;2024-02-21T08:37:15;5.70;15.00
26164;DHT22;13914;48.178;11.716;2024-02-21T08:39:41;5.80;15.20
26164;DHT22;13914;48.178;11.716;2024-02-21T08:42:06;5.80;15.20
26164;DHT22;13914;48.178;11.716;2024-02-21T08:44:32;5.90;15.20
26164;DHT22;13914;48.178;11.716;2024-02-21T08:46:58;6.10;15.20
26164;DHT22;13914;48.178;11.716;2024-02-21T08:49:23;6.20;15.10
26164;DHT22;13914;48.178;11.716;2024-02-21T08:51:52;6.20;15.30
26164;DHT22;13914;48.178;11.716;2024-02-21T08:54:18;6.40;15.40
26164;DHT22;13914;48.178;11.716;2024-02-21T08:56:43;6.40;15.80
26164;DHT22;13914;48.178;11.716;2024-02-21T08:59:09;6.60;16.00
26164;DHT22;13914;48.178;11.716;2024-02-21T09:01:35;6.70;16.10
26164;DHT22;13914;48.178;11.716;2024-02-21T09:04:00;6.80;16.30
26164;DHT22;13914;48.178;11.716;2024-02-21T09:06:28;6.90;16.30
26164;DHT22;13914;48.178;11.716;2024-02-21T09:08:56;7.00;16.40
26164;DHT22;13914;48.178;11.716;2024-02-21T09:11:22;7.20;16.40
26164;DHT22;13914;48.178;11.716;2024-02-21T09:13:47;7.30;16.90
26164;DHT22;13914;48.178;11.716;2024-02-21T09:16:13;7.40;16.00
26164;DHT22;13914;48.178;11.716;2024-02-21T09:18:39;7.50;16.50
26164;DHT22;13914;48.178;11.716;2024-02-21T09:21:05;7.70;16.80
26164;DHT22;13914;48.178;11.716;2024-02-21T09:23:30;7.80;16.50
26164;DHT22;13914;48.178;11.716;2024-02-21T09:25:57;7.90;16.20
26164;DHT22;13914;48.178;11.716;2024-02-21T09:28:23;8.00;16.30
26164;DHT22;13914;48.178;11.716;2024-02-21T09:30:49;8.20;16.60
26164;DHT22;13914;48.178;11.716;2024-02-21T09:33:15;8.30;16.50
26164;DHT22;13914;48.178;11.716;2024-02-21T09:35:41;8.40;16.20
26164;DHT22;13914;48.178;11.716;2024-02-21T09:38:07;8.60;16.20
26164;DHT22;13914;48.178;11.716;2024-02-21T09:40:32;8.70;16.20
26164;DHT22;13914;48.178;11.716;2024-02-21T09:43:04;8.80;15.80
26164;DHT22;13914;48.178;11.716;2024-02-21T09:45:33;8.90;15.80
26164;DHT22;13914;48.178;11.716;2024-02-21T09:50:38;9.10;15.80
26164;DHT22;13914;48.178;11.716;2024-02-21T09:53:06;9.30;15.60
26164;DHT22;13914;48.178;11.716;2024-02-21T09:55:32;9.40;15.10
26164;DHT22;13914;48.178;11.716;2024-02-21T09:58:01;9.50;13.20
26164;DHT22;13914;48.178;11.716;2024-02-21T10:00:27;9.60;13.80
26164;DHT22;13914;48.178;11.716;2024-02-21T10:02:53;9.70;14.40
26164;DHT22;13914;48.178;11.716;2024-02-21T10:05:19;9.80;14.40
26164;DHT22;13914;48.178;11.716;2024-02-21T10:07:45;9.90;14.90
26164;DHT22;13914;48.178;11.716;2024-02-21T10:10:11;10.00;14.40
26164;DHT22;13914;48.178;11.716;2024-02-21T10:12:36;10.10;13.40
26164;DHT22;13914;48.178;11.716;2024-02-21T10:15:02;10.30;14.10
26164;DHT22;13914;48.178;11.716;2024-02-21T10:17:28;10.30;14.20
26164;DHT22;13914;48.178;11.716;2024-02-21T10:19:54;10.40;14.30
26164;DHT22;13914;48.178;11.716;2024-02-21T10:22:20;10.60;13.80
26164;DHT22;13914;48.178;11.716;2024-02-21T10:24:46;10.60;13.40
26164;DHT22;13914;48.178;11.716;2024-02-21T10:27:12;10.70;12.90
26164;DHT22;13914;48.178;11.716;2024-02-21T10:29:38;10.80;13.60
26164;DHT22;13914;48.178;11.716;2024-02-21T10:32:07;11.00;13.60
26164;DHT22;13914;48.178;11.716;2024-02-21T10:34:34;11.00;12.90
26164;DHT22;13914;48.178;11.716;2024-02-21T10:37:03;11.10;12.30
26164;DHT22;13914;48.178;11.716;2024-02-21T10:39:31;11.20;12.60
26164;DHT22;13914;48.178;11.716;2024-02-21T10:41:59;11.30;12.10
26164;DHT22;13914;48.178;11.716;2024-02-21T10:44:28;11.40;12.40
26164;DHT22;13914;48.178;11.716;2024-02-21T10:46:55;11.40;11.70
26164;DHT22;13914;48.178;11.716;2024-02-21T10:49:22;11.50;10.90
26164;DHT22;13914;48.178;11.716;2024-02-21T10:51:54;11.60;11.60
26164;DHT22;13914;48.178;11.716;2024-02-21T10:57:07;11.80;11.10
26164;DHT22;13914;48.178;11.716;2024-02-21T10:59:34;11.80;11.40
26164;DHT22;13914;48.178;11.716;2024-02-21T11:02:00;11.90;11.60
26164;DHT22;13914;48.178;11.716;2024-02-21T11:04:26;12.00;11.80
26164;DHT22;13914;48.178;11.716;2024-02-21T11:06:52;12.10;11.50
26164;DHT22;13914;48.178;11.716;2024-02-21T11:09:17;12.20;11.20
26164;DHT22;13914;48.178;11.716;2024-02-21T11:11:43;12.20;11.00
26164;DHT22;13914;48.178;11.716;2024-02-21T11:16:40;12.40;11.70
26164;DHT22;13914;48.178;11.716;2024-02-21T11:19:19;12.40;11.30
26164;DHT22;13914;48.178;11.716;2024-02-21T11:21:45;12.50;11.60
26164;DHT22;13914;48.178;11.716;2024-02-21T11:24:11;12.60;11.60
26164;DHT22;13914;48.178;11.716;2024-02-21T11:26:37;12.60;11.40
26164;DHT22;13914;48.178;11.716;2024-02-21T11:29:03;12.70;11.40
26164;DHT22;13914;48.178;11.716;2024-02-21T11:31:41;12.80;11.40
26164;DHT22;13914;48.178;11.716;2024-02-21T11:34:08;12.80;11.20
26164;DHT22;13914;48.178;11.716;2024-02-21T11:36:35;12.90;11.40
26164;DHT22;13914;48.178;11.716;2024-02-21T11:39:04;13.00;11.00
26164;DHT22;13914;48.178;11.716;2024-02-21T11:41:30;13.10;10.10
26164;DHT22;13914;48.178;11.716;2024-02-21T11:43:55;13.10;10.00
26164;DHT22;13914;48.178;11.716;2024-02-21T11:46:21;13.10;11.00
26164;DHT22;13914;48.178;11.716;2024-02-21T11:48:47;13.20;11.00
26164;DHT22;13914;48.178;11.716;2024-02-21T11:51:22;13.30;11.20
26164;DHT22;13914;48.178;11.716;2024-02-21T11:53:51;13.30;11.30
26164;DHT22;13914;48.178;11.716;2024-02-21T11:56:17;13.40;11.50
26164;DHT22;13914;48.178;11.716;2024-02-21T11:58:43;13.40;11.40
26164;DHT22;13914;48.178;11.716;2024-02-21T12:01:09;13.50;10.70
26164;DHT22;13914;48.178;11.716;2024-02-21T12:03:35;13.50;10.70
26164;DHT22;13914;48.178;11.716;2024-02-21T12:06:01;13.60;10.50
26164;DHT22;13914;48.178;11.716;2024-02-21T12:08:40;13.70;11.20
26164;DHT22;13914;48.178;11.716;2024-02-21T12:11:18;13.70;11.30
26164;DHT22;13914;48.178;11.716;2024-02-21T12:13:45;13.80;11.20
26164;DHT22;13914;48.178;11.716;2024-02-21T12:16:11;13.80;11.20
26164;DHT22;13914;48.178;11.716;2024-02-21T12:18:36;13.80;11.30
26164;DHT22;13914;48.178;11.716;2024-02-21T12:21:02;13.90;11.40
26164;DHT22;13914;48.178;11.716;2024-02-21T12:23:30;14.00;11.00
26164;DHT22;13914;48.178;11.716;2024-02-21T12:25:55;14.00;11.20
26164;DHT22;13914;48.178;11.716;2024-02-21T12:28:21;14.10;11.20
26164;DHT22;13914;48.178;11.716;2024-02-21T12:30:47;14.10;11.10
26164;DHT22;13914;48.178;11.716;2024-02-21T12:33:13;14.10;10.80
26164;DHT22;13914;48.178;11.716;2024-02-21T12:35:41;14.20;11.60
26164;DHT22;13914;48.178;11.716;2024-02-21T12:38:07;14.30;11.20
26164;DHT22;13914;48.178;11.716;2024-02-21T12:40:32;14.30;11.30
26164;DHT22;13914;48.178;11.716;2024-02-21T12:43:01;14.30;11.50
26164;DHT22;13914;48.178;11.716;2024-02-21T12:45:28;14.40;11.30
26164;DHT22;13914;48.178;11.716;2024-02-21T12:47:54;14.40;10.20
26164;DHT22;13914;48.178;11.716;2024-02-21T12:50:19;14.50;10.50
26164;DHT22;13914;48.178;11.716;2024-02-21T12:52:45;14.60;10.30
26164;DHT22;13914;48.178;11.716;2024-02-21T12:55:11;14.60;10.80
26164;DHT22;13914;48.178;11.716;2024-02-21T12:57:39;14.60;11.10
26164;DHT22;13914;48.178;11.716;2024-02-21T13:00:05;14.70;11.10
26164;DHT22;13914;48.178;11.716;2024-02-21T13:02:34;14.70;10.80
26164;DHT22;13914;48.178;11.716;2024-02-21T13:05:00;14.80;10.60
26164;DHT22;13914;48.178;11.716;2024-02-21T13:07:28;14.90;10.70
26164;DHT22;13914;48.178;11.716;2024-02-21T13:09:54;14.90;10.50
26164;DHT22;13914;48.178;11.716;2024-02-21T13:12:19;15.00;10.90
26164;DHT22;13914;48.178;11.716;2024-02-21T13:14:45;15.00;11.00
26164;DHT22;13914;48.178;11.716;2024-02-21T13:17:11;15.10;11.20
26164;DHT22;13914;48.178;11.716;2024-02-21T13:19:36;15.00;11.20
26164;DHT22;13914;48.178;11.716;2024-02-21T13:22:02;15.20;11.60
26164;DHT22;13914;48.178;11.716;2024-02-21T13:24:29;15.20;11.40
26164;DHT22;13914;48.178;11.716;2024-02-21T13:26:55;15.30;11.90
26164;DHT22;13914;48.178;11.716;2024-02-21T13:29:21;15.30;11.50
26164;DHT22;13914;48.178;11.716;2024-02-21T13:31:47;15.30;11.30
26164;DHT22;13914;48.178;11.716;2024-02-21T13:34:12;15.40;11.10
26164;DHT22;13914;48.178;11.716;2024-02-21T13:36:38;15.50;11.40
26164;DHT22;13914;48.178;11.716;2024-02-21T13:39:04;15.50;10.90
26164;DHT22;13914;48.178;11.716;2024-02-21T13:41:34;15.50;11.50
26164;DHT22;13914;48.178;11.716;2024-02-21T13:44:00;15.60;11.00
26164;DHT22;13914;48.178;11.716;2024-02-21T13:46:25;15.50;11.00
26164;DHT22;13914;48.178;11.716;2024-02-21T13:48:53;15.60;10.90
26164;DHT22;13914;48.178;11.716;2024-02-21T13:51:29;15.70;11.20
26164;DHT22;13914;48.178;11.716;2024-02-21T13:53:55;15.70;11.20
26164;DHT22;13914;48.178;11.716;2024-02-21T13:56:21;15.70;11.00
26164;DHT22;13914;48.178;11.716;2024-02-21T13:58:46;15.70;10.70
26164;DHT22;13914;48.178;11.716;2024-02-21T14:01:12;15.80;10.80
26164;DHT22;13914;48.178;11.716;2024-02-21T14:03:37;15.80;10.80
26164;DHT22;13914;48.178;11.716;2024-02-21T14:06:03;15.80;10.50
26164;DHT22;13914;48.178;11.716;2024-02-21T14:08:30;15.90;10.60
26164;DHT22;13914;48.178;11.716;2024-02-21T14:10:56;15.90;10.70
26164;DHT22;13914;48.178;11.716;2024-02-21T14:13:24;16.00;10.60
26164;DHT22;13914;48.178;11.716;2024-02-21T14:15:50;15.90;10.90
26164;DHT22;13914;48.178;11.716;2024-02-21T14:18:16;15.90;10.90
26164;DHT22;13914;48.178;11.716;2024-02-21T14:20:42;16.00;11.10
26164;DHT22;13914;48.178;11.716;2024-02-21T14:23:08;16.00;10.70
26164;DHT22;13914;48.178;11.716;2024-02-21T14:25:34;16.00;10.80
26164;DHT22;13914;48.178;11.716;2024-02-21T14:27:59;16.00;10.50
26164;DHT22;13914;48.178;11.716;2024-02-21T14:30:28;16.00;10.80
26164;DHT22;13914;48.178;11.716;2024-02-21T14:32:53;16.00;11.00
26164;DHT22;13914;48.178;11.716;2024-02-21T14:35:19;16.00;10.50
26164;DHT22;13914;48.178;11.716;2024-02-21T14:37:45;16.00;10.60
26164;DHT22;13914;48.178;11.716;2024-02-21T14:40:11;16.00;10.60
26164;DHT22;13914;48.178;11.716;2024-02-21T14:42:38;16.00;9.90
26164;DHT22;13914;48.178;11.716;2024-02-21T14:45:04;16.00;9.90
26164;DHT22;13914;48.178;11.716;2024-02-21T14:47:30;15.90;10.10
26164;DHT22;13914;48.178;11.716;2024-02-21T14:49:57;15.90;10.30
26164;DHT22;13914;48.178;11.716;2024-02-21T14:52:22;15.90;10.50
26164;DHT22;13914;48.178;11.716;2024-02-21T14:54:50;15.90;10.10
26164;DHT22;13914;48.178;11.716;2024-02-21T14:57:17;15.90;9.80
26164;DHT22;13914;48.178;11.716;2024-02-21T14:59:43;15.90;9.50
26164;DHT22;13914;48.178;11.716;2024-02-21T15:02:08;15.80;8.80
26164;DHT22;13914;48.178;11.716;2024-02-21T15:04:35;15.80;9.40
26164;DHT22;13914;48.178;11.716;2024-02-21T15:07:01;15.90;8.90
26164;DHT22;13914;48.178;11.716;2024-02-21T15:09:27;15.80;9.20
26164;DHT22;13914;48.178;11.716;2024-02-21T15:11:53;15.80;8.60
26164;DHT22;13914;48.178;11.716;2024-02-21T15:14:19;15.70;8.40
26164;DHT22;13914;48.178;11.716;2024-02-21T15:16:45;15.80;8.60
26164;DHT22;13914;48.178;11.716;2024-02-21T15:19:11;15.70;9.10
26164;DHT22;13914;48.178;11.716;2024-02-21T15:21:37;15.70;8.40
26164;DHT22;13914;48.178;11.716;2024-02-21T15:24:02;15.60;8.60
26164;DHT22;13914;48.178;11.716;2024-02-21T15:26:29;15.70;8.90
26164;DHT22;13914;48.178;11.716;2024-02-21T15:28:55;15.60;8.00